createdAt,value
2023-03-24T00:01:01.960Z,83.95
2023-03-24T00:03:45.929Z,82.92
2023-03-24T00:06:22.811Z,82.38
2023-03-24T00:08:53.154Z,81.64
2023-03-24T00:11:23.347Z,81.30
2023-03-24T00:14:00.164Z,81.02
2023-03-24T00:16:34.810Z,79.75
2023-03-24T00:19:07.024Z,78.54
2023-03-24T00:21:35.066Z,78.00
2023-03-24T00:24:04.470Z,78.41
2023-03-24T00:26:52.528Z,77.33
2023-03-24T00:29:26.600Z,79.15
2023-03-24T00:32:01.089Z,78.14
2023-03-24T00:34:29.084Z,79.79
2023-03-24T00:36:57.052Z,79.03
2023-03-24T00:39:43.693Z,79.07
2023-03-24T00:42:14.069Z,78.72
2023-03-24T00:44:42.040Z,76.95
2023-03-24T00:47:11.158Z,77.65
2023-03-24T00:49:45.892Z,78.26
2023-03-24T00:52:18.218Z,77.90
2023-03-24T00:54:46.331Z,78.99
2023-03-24T00:57:21.622Z,80.05
2023-03-24T00:59:50.266Z,77.44
2023-03-24T01:02:36.044Z,78.13
2023-03-24T01:05:11.076Z,76.90
2023-03-24T01:07:44.353Z,76.27
2023-03-24T01:10:15.601Z,76.91
2023-03-24T01:12:46.203Z,78.57
2023-03-24T01:15:17.297Z,80.09
2023-03-24T01:17:47.347Z,81.14
2023-03-24T01:20:17.430Z,81.91
2023-03-24T01:22:46.401Z,79.85
2023-03-24T01:25:16.949Z,77.51
2023-03-24T01:27:55.722Z,79.04
2023-03-24T01:30:28.103Z,81.73
2023-03-24T01:32:56.825Z,80.12
2023-03-24T01:35:29.591Z,80.07
2023-03-24T01:38:01.997Z,81.35
2023-03-24T01:40:34.560Z,80.76
2023-03-24T01:43:05.665Z,81.40
2023-03-24T01:46:00.848Z,80.83
2023-03-24T01:48:34.699Z,78.61
2023-03-24T01:51:09.800Z,77.52
2023-03-24T01:53:41.744Z,77.27
2023-03-24T01:56:11.465Z,76.29
2023-03-24T01:58:49.955Z,76.44
2023-03-24T02:01:38.205Z,76.23
2023-03-24T02:04:23.200Z,76.88
2023-03-24T02:07:15.079Z,76.62
2023-03-24T02:09:45.370Z,76.69
2023-03-24T02:12:13.718Z,76.20
2023-03-24T02:14:54.771Z,77.99
2023-03-24T02:17:43.611Z,77.44
2023-03-24T02:20:46.781Z,78.05
2023-03-24T02:23:59.020Z,77.48
2023-03-24T02:26:48.735Z,77.18
2023-03-24T02:29:44.212Z,76.93
2023-03-24T02:32:40.005Z,76.84
2023-03-24T02:35:29.323Z,77.21
2023-03-24T02:38:26.860Z,77.19
2023-03-24T02:41:18.084Z,78.18
2023-03-24T02:43:58.172Z,78.13
2023-03-24T02:46:34.879Z,76.96
2023-03-24T02:49:20.377Z,76.53
2023-03-24T02:51:54.632Z,76.45
2023-03-24T02:54:30.687Z,76.21
2023-03-24T02:57:06.979Z,76.08
2023-03-24T03:00:10.271Z,76.94
2023-03-24T03:03:16.433Z,76.04
2023-03-24T03:05:50.635Z,75.97
2023-03-24T03:08:32.523Z,74.96
2023-03-24T03:11:02.461Z,75.58
2023-03-24T03:13:36.442Z,75.36
2023-03-24T03:16:10.145Z,75.33
2023-03-24T03:18:43.428Z,75.50
2023-03-24T03:21:14.349Z,75.62
2023-03-24T03:23:47.560Z,76.50
2023-03-24T03:26:19.658Z,75.08
2023-03-24T03:28:58.274Z,74.89
2023-03-24T03:31:35.793Z,75.07
2023-03-24T03:34:10.850Z,74.77
2023-03-24T03:36:48.368Z,75.83
2023-03-24T03:39:26.801Z,76.16
2023-03-24T03:41:56.335Z,75.53
2023-03-24T03:44:28.225Z,75.80
2023-03-24T03:46:57.187Z,75.58
2023-03-24T03:49:36.487Z,75.11
2023-03-24T03:52:14.603Z,75.36
2023-03-24T03:54:49.046Z,76.36
2023-03-24T03:57:18.192Z,75.28
2023-03-24T04:00:20.047Z,75.65
2023-03-24T04:03:36.587Z,75.70
2023-03-24T04:06:37.409Z,75.81
2023-03-24T04:09:17.879Z,75.42
2023-03-24T04:12:01.850Z,75.71
2023-03-24T04:15:23.724Z,75.85
2023-03-24T04:18:33.490Z,76.01
2023-03-24T04:21:33.355Z,75.10
2023-03-24T04:24:14.791Z,74.80
2023-03-24T04:26:54.595Z,75.06
2023-03-24T04:29:33.433Z,75.17
2023-03-24T04:32:22.886Z,74.99
2023-03-24T04:35:01.239Z,74.85
2023-03-24T04:37:51.730Z,74.96
2023-03-24T04:40:34.435Z,75.08
2023-03-24T04:43:27.488Z,75.47
2023-03-24T04:45:58.625Z,74.90
2023-03-24T04:48:51.110Z,74.70
2023-03-24T04:51:29.156Z,74.77
2023-03-24T04:54:09.420Z,74.78
2023-03-24T04:56:47.605Z,75.60
2023-03-24T04:59:23.944Z,75.32
2023-03-24T05:01:52.117Z,74.96
2023-03-24T05:04:40.858Z,76.09
2023-03-24T05:07:27.220Z,75.31
2023-03-24T05:10:00.188Z,76.45
2023-03-24T05:12:28.604Z,76.25
2023-03-24T05:15:17.890Z,77.37
2023-03-24T05:17:47.979Z,77.20
2023-03-24T05:20:17.523Z,77.52
2023-03-24T05:22:52.230Z,79.39
2023-03-24T05:25:22.271Z,80.70
2023-03-24T05:27:50.909Z,81.33
2023-03-24T05:30:25.739Z,82.03
2023-03-24T05:33:01.303Z,83.44
2023-03-24T05:35:31.763Z,84.00
2023-03-24T05:38:00.462Z,84.25
2023-03-24T05:40:28.521Z,84.63
2023-03-24T05:43:12.832Z,84.76
2023-03-24T05:45:46.029Z,86.23
2023-03-24T05:48:24.048Z,85.99
2023-03-24T05:51:09.180Z,87.13
2023-03-24T05:53:37.038Z,86.91
2023-03-24T05:56:15.399Z,87.70
2023-03-24T05:59:04.407Z,88.07
2023-03-24T06:02:07.767Z,87.85
2023-03-24T06:04:49.518Z,89.19
2023-03-24T06:07:26.958Z,89.85
2023-03-24T06:10:02.925Z,90.14
2023-03-24T06:12:38.684Z,90.00
2023-03-24T06:15:07.814Z,91.18
2023-03-24T06:17:37.590Z,91.22
2023-03-24T06:20:19.021Z,92.15
2023-03-24T06:22:59.997Z,92.67
2023-03-24T06:25:33.714Z,92.29
2023-03-24T06:28:17.173Z,92.82
2023-03-24T06:30:49.209Z,92.77
2023-03-24T06:33:32.897Z,92.91
2023-03-24T06:36:01.992Z,92.73
2023-03-24T06:38:33.893Z,93.24
2023-03-24T06:41:03.827Z,92.89
2023-03-24T06:43:33.169Z,92.48
2023-03-24T06:46:02.486Z,92.27
2023-03-24T06:48:31.623Z,92.65
2023-03-24T06:51:04.773Z,93.05
2023-03-24T06:53:34.300Z,93.31
2023-03-24T06:56:02.339Z,93.19
2023-03-24T06:58:38.002Z,93.55
2023-03-24T07:01:08.334Z,94.24
2023-03-24T07:03:56.819Z,94.34
2023-03-24T07:06:40.444Z,95.00
2023-03-24T07:09:20.247Z,94.93
2023-03-24T07:11:48.178Z,95.83
2023-03-24T07:14:16.550Z,96.31
2023-03-24T07:16:46.616Z,95.75
2023-03-24T07:19:32.262Z,97.15
2023-03-24T07:22:19.018Z,98.00
2023-03-24T07:25:09.667Z,98.58
2023-03-24T07:27:49.235Z,98.57
2023-03-24T07:30:24.203Z,98.91
2023-03-24T07:32:57.272Z,98.41
2023-03-24T07:35:25.207Z,98.97
2023-03-24T07:37:53.079Z,98.07
2023-03-24T07:40:23.807Z,99.23
2023-03-24T07:42:52.672Z,98.86
2023-03-24T07:45:26.461Z,99.56
2023-03-24T07:47:57.381Z,99.84
2023-03-24T07:50:25.464Z,99.84
2023-03-24T07:52:53.756Z,100.00
2023-03-24T07:55:23.215Z,100.00
2023-03-24T07:58:18.325Z,100.00
2023-03-24T08:01:01.688Z,100.00
2023-03-24T08:03:40.855Z,100.00
2023-03-24T08:06:17.784Z,100.00
2023-03-24T08:08:53.246Z,99.92
2023-03-24T08:11:22.890Z,100.00
2023-03-24T08:13:50.765Z,100.00
2023-03-24T08:16:18.631Z,100.00
2023-03-24T08:18:48.730Z,100.00
2023-03-24T08:21:16.591Z,100.00
2023-03-24T08:23:45.468Z,100.00
2023-03-24T08:26:14.115Z,100.00
2023-03-24T08:28:43.825Z,100.00
2023-03-24T08:31:13.333Z,100.00
2023-03-24T08:33:42.028Z,100.00
2023-03-24T08:36:10.098Z,100.00
2023-03-24T08:38:39.082Z,100.00
2023-03-24T08:41:08.930Z,100.00
2023-03-24T08:43:38.357Z,100.00
2023-03-24T08:46:12.486Z,100.00
2023-03-24T08:48:43.206Z,100.00
2023-03-24T08:51:13.255Z,99.27
2023-03-24T08:53:42.374Z,99.17
2023-03-24T08:56:11.909Z,99.20
2023-03-24T08:58:39.847Z,99.73
2023-03-24T09:01:09.950Z,99.13
2023-03-24T09:03:39.916Z,98.79
2023-03-24T09:06:08.476Z,98.61
2023-03-24T09:08:36.295Z,98.29
2023-03-24T09:11:05.084Z,98.18
2023-03-24T09:13:33.320Z,98.77
2023-03-24T09:16:04.795Z,97.42
2023-03-24T09:18:34.402Z,96.77
2023-03-24T09:21:02.962Z,97.12
2023-03-24T09:23:31.878Z,96.76
2023-03-24T09:26:00.950Z,94.86
2023-03-24T09:28:29.492Z,95.67
2023-03-24T09:31:01.436Z,95.05
2023-03-24T09:33:30.656Z,95.76
2023-03-24T09:36:01.607Z,94.40
2023-03-24T09:38:29.849Z,93.82
2023-03-24T09:41:01.602Z,93.49
2023-03-24T09:43:37.460Z,93.05
2023-03-24T09:46:12.705Z,93.05
2023-03-24T09:48:44.937Z,92.68
2023-03-24T09:51:22.071Z,92.24
2023-03-24T09:53:57.267Z,91.07
2023-03-24T09:56:26.549Z,89.40
2023-03-24T09:59:03.927Z,88.70
2023-03-24T10:01:32.349Z,87.46
2023-03-24T10:04:01.220Z,86.22
2023-03-24T10:06:32.854Z,85.34
2023-03-24T10:09:13.346Z,84.61
2023-03-24T10:11:50.925Z,82.81
2023-03-24T10:14:28.813Z,82.78
2023-03-24T10:17:04.638Z,82.41
2023-03-24T10:19:41.516Z,80.13
2023-03-24T10:22:20.345Z,80.76
2023-03-24T10:24:56.328Z,79.76
2023-03-24T10:27:29.936Z,78.77
2023-03-24T10:30:04.584Z,77.98
2023-03-24T10:32:35.767Z,78.27
2023-03-24T10:35:10.053Z,78.80
2023-03-24T10:37:39.443Z,78.37
2023-03-24T10:40:16.480Z,78.26
2023-03-24T10:42:46.210Z,77.62
2023-03-24T10:45:16.195Z,77.59
2023-03-24T10:47:45.070Z,75.70
2023-03-24T10:50:14.897Z,74.77
2023-03-24T10:52:48.794Z,76.22
2023-03-24T10:55:19.187Z,76.48
2023-03-24T10:57:50.895Z,76.45
2023-03-24T11:00:24.648Z,75.91
2023-03-24T11:02:58.738Z,76.73
2023-03-24T11:05:33.360Z,75.12
2023-03-24T11:08:25.588Z,75.44
2023-03-24T11:10:53.521Z,72.93
2023-03-24T11:13:29.740Z,74.06
2023-03-24T11:16:05.833Z,72.88
2023-03-24T11:18:34.094Z,74.06
2023-03-24T11:21:04.968Z,73.97
2023-03-24T11:23:36.420Z,72.47
2023-03-24T11:26:10.730Z,74.00
2023-03-24T11:28:41.878Z,72.95
2023-03-24T11:31:11.847Z,71.75
2023-03-24T11:33:46.694Z,72.02
2023-03-24T11:36:44.739Z,71.07
2023-03-24T11:39:19.947Z,70.81
2023-03-24T11:42:05.364Z,71.74
2023-03-24T11:44:44.150Z,70.70
2023-03-24T11:47:17.833Z,71.11
2023-03-24T11:49:51.327Z,70.69
2023-03-24T11:52:24.330Z,68.99
2023-03-24T11:54:54.946Z,69.20
2023-03-24T11:57:39.125Z,68.20
2023-03-24T12:00:16.502Z,68.73
2023-03-24T12:03:01.911Z,68.92
2023-03-24T12:05:34.841Z,68.64
2023-03-24T12:08:25.106Z,69.45
2023-03-24T12:11:08.936Z,68.12
2023-03-24T12:13:40.487Z,67.63
2023-03-24T12:16:32.918Z,68.91
2023-03-24T12:19:30.662Z,67.36
2023-03-24T12:22:08.036Z,67.96
2023-03-24T12:24:51.565Z,68.29
2023-03-24T12:27:34.345Z,67.73
2023-03-24T12:30:07.453Z,67.87
2023-03-24T12:32:52.662Z,68.35
2023-03-24T12:35:49.933Z,69.22
2023-03-24T12:38:35.171Z,69.15
2023-03-24T12:41:36.798Z,69.97
2023-03-24T12:44:23.525Z,69.81
2023-03-24T12:47:02.955Z,69.72
2023-03-24T12:49:48.752Z,69.72
2023-03-24T12:52:58.026Z,70.28
2023-03-24T12:55:43.816Z,70.67
2023-03-24T12:58:18.852Z,68.85
2023-03-24T13:00:59.972Z,68.75
2023-03-24T13:03:33.124Z,68.07
2023-03-24T13:06:17.217Z,68.46
2023-03-24T13:08:55.474Z,68.74
2023-03-24T13:11:33.272Z,68.83
2023-03-24T13:14:06.338Z,70.10
2023-03-24T13:16:38.850Z,69.37
2023-03-24T13:19:15.647Z,69.68
2023-03-24T13:21:45.294Z,69.89
2023-03-24T13:24:15.526Z,70.55
2023-03-24T13:26:54.418Z,70.54
2023-03-24T13:29:41.720Z,70.58
2023-03-24T13:32:27.002Z,70.53
2023-03-24T13:34:59.130Z,70.45
2023-03-24T13:37:34.070Z,70.88
2023-03-24T13:40:07.757Z,71.26
2023-03-24T13:42:39.185Z,71.73
2023-03-24T13:45:09.010Z,71.23
2023-03-24T13:47:57.740Z,71.68
2023-03-24T13:50:27.160Z,71.06
2023-03-24T13:52:56.423Z,71.34
2023-03-24T13:55:28.806Z,71.39
2023-03-24T13:58:01.595Z,71.80
2023-03-24T14:00:30.670Z,71.13
2023-03-24T14:03:15.444Z,71.60
2023-03-24T14:05:59.344Z,71.16
2023-03-24T14:08:43.907Z,72.05
2023-03-24T14:11:49.464Z,73.29
2023-03-24T14:14:23.759Z,72.12
2023-03-24T14:16:54.176Z,72.50
2023-03-24T14:19:26.707Z,72.26
2023-03-24T14:22:00.142Z,72.69
2023-03-24T14:24:32.884Z,73.74
2023-03-24T14:27:01.105Z,72.11
2023-03-24T14:29:41.330Z,73.09
2023-03-24T14:32:20.579Z,72.96
2023-03-24T14:34:57.997Z,74.98
2023-03-24T14:37:27.266Z,74.82
2023-03-24T14:39:58.389Z,74.93
2023-03-24T14:42:57.301Z,74.66
2023-03-24T14:45:41.901Z,74.65
2023-03-24T14:48:29.930Z,74.78
2023-03-24T14:51:04.685Z,74.79
2023-03-24T14:53:37.356Z,76.91
2023-03-24T14:56:07.929Z,79.75
2023-03-24T14:58:39.148Z,83.18
2023-03-24T15:01:08.409Z,84.15
2023-03-24T15:03:45.986Z,86.31
2023-03-24T15:06:17.224Z,87.99
2023-03-24T15:08:51.320Z,88.03
2023-03-24T15:11:24.314Z,89.56
2023-03-24T15:13:53.373Z,90.94
2023-03-24T15:16:24.953Z,90.92
2023-03-24T15:19:01.512Z,91.41
2023-03-24T15:21:34.816Z,91.33
2023-03-24T15:24:04.265Z,90.42
2023-03-24T15:26:33.231Z,90.56
2023-03-24T15:29:03.916Z,90.21
2023-03-24T15:31:32.227Z,91.55
2023-03-24T15:34:08.674Z,91.32
2023-03-24T15:36:46.281Z,89.88
2023-03-24T15:39:19.781Z,89.86
2023-03-24T15:41:52.836Z,89.63
2023-03-24T15:44:23.142Z,89.64
2023-03-24T15:46:51.505Z,89.57
2023-03-24T15:49:25.907Z,89.04
2023-03-24T15:51:59.766Z,90.15
2023-03-24T15:54:30.995Z,90.25
2023-03-24T15:57:17.935Z,90.59
2023-03-24T15:59:49.014Z,89.81
2023-03-24T16:02:29.765Z,90.58
2023-03-24T16:05:10.751Z,90.35
2023-03-24T16:07:42.523Z,90.60
2023-03-24T16:10:32.575Z,91.50
2023-03-24T16:13:14.542Z,90.59
2023-03-24T16:15:44.051Z,91.17
2023-03-24T16:18:17.076Z,92.09
2023-03-24T16:20:45.217Z,92.69
2023-03-24T16:23:14.458Z,93.24
2023-03-24T16:25:42.533Z,91.63
2023-03-24T16:28:13.745Z,90.48
2023-03-24T16:30:43.990Z,92.00
2023-03-24T16:33:12.642Z,91.21
2023-03-24T16:35:40.809Z,91.52
2023-03-24T16:38:11.215Z,91.36
2023-03-24T16:40:45.045Z,90.96
2023-03-24T16:43:12.928Z,90.57
2023-03-24T16:45:40.945Z,89.78
2023-03-24T16:48:11.532Z,90.54
2023-03-24T16:50:40.949Z,89.37
2023-03-24T16:53:09.846Z,90.04
2023-03-24T16:55:38.839Z,88.75
2023-03-24T16:58:09.427Z,89.05
2023-03-24T17:00:38.427Z,89.16
2023-03-24T17:03:08.097Z,89.21
2023-03-24T17:05:40.484Z,89.62
2023-03-24T17:08:10.382Z,87.52
2023-03-24T17:10:38.521Z,87.78
2023-03-24T17:13:08.095Z,87.56
2023-03-24T17:15:37.302Z,86.96
2023-03-24T17:18:08.328Z,87.56
2023-03-24T17:20:39.687Z,87.33
2023-03-24T17:23:11.256Z,86.23
2023-03-24T17:25:40.287Z,86.49
2023-03-24T17:28:14.311Z,86.81
2023-03-24T17:30:42.647Z,85.33
2023-03-24T17:33:14.534Z,85.51
2023-03-24T17:35:44.785Z,85.91
2023-03-24T17:38:14.975Z,85.54
2023-03-24T17:40:43.625Z,85.16
2023-03-24T17:43:13.918Z,85.49
2023-03-24T17:45:42.071Z,85.59
2023-03-24T17:48:10.064Z,85.72
2023-03-24T17:50:38.111Z,86.32
2023-03-24T17:53:06.181Z,85.98
2023-03-24T17:55:34.658Z,85.27
2023-03-24T17:58:04.278Z,85.15
2023-03-24T18:00:35.427Z,86.05
2023-03-24T18:03:03.376Z,85.31
2023-03-24T18:05:31.298Z,85.19
2023-03-24T18:07:59.156Z,85.51
2023-03-24T18:10:27.051Z,84.80
2023-03-24T18:12:55.429Z,85.16
2023-03-24T18:15:25.645Z,84.79
2023-03-24T18:17:54.992Z,84.21
2023-03-24T18:20:23.576Z,85.18
2023-03-24T18:22:52.743Z,85.24
2023-03-24T18:25:21.073Z,84.36
2023-03-24T18:27:49.657Z,84.49
2023-03-24T18:30:17.852Z,84.91
2023-03-24T18:32:45.771Z,84.57
2023-03-24T18:35:17.196Z,84.12
2023-03-24T18:37:45.659Z,84.35
2023-03-24T18:40:15.621Z,83.73
2023-03-24T18:42:43.593Z,84.18
2023-03-24T18:45:17.323Z,84.37
2023-03-24T18:47:45.940Z,83.92
2023-03-24T18:50:16.064Z,84.13
2023-03-24T18:52:43.945Z,84.59
2023-03-24T18:55:12.044Z,84.31
2023-03-24T18:57:41.325Z,83.66
2023-03-24T19:00:12.122Z,84.15
2023-03-24T19:02:40.623Z,83.97
2023-03-24T19:05:10.157Z,83.68
2023-03-24T19:07:39.461Z,83.23
2023-03-24T19:10:08.737Z,83.71
2023-03-24T19:12:37.080Z,83.10
2023-03-24T19:15:07.141Z,84.06
2023-03-24T19:17:36.268Z,83.01
2023-03-24T19:20:07.346Z,83.17
2023-03-24T19:22:35.412Z,82.63
2023-03-24T19:25:06.147Z,82.56
2023-03-24T19:27:34.318Z,82.79
2023-03-24T19:30:04.906Z,82.08
2023-03-24T19:32:32.986Z,82.62
2023-03-24T19:35:01.335Z,82.54
2023-03-24T19:37:31.733Z,82.65
2023-03-24T19:40:00.159Z,83.20
2023-03-24T19:42:33.279Z,82.84
2023-03-24T19:45:01.881Z,83.30
2023-03-24T19:47:30.316Z,83.86
2023-03-24T19:49:58.416Z,84.21
2023-03-24T19:52:26.355Z,84.13
2023-03-24T19:54:54.610Z,84.24
2023-03-24T19:57:23.149Z,83.57
2023-03-24T19:59:52.636Z,83.42
2023-03-24T20:02:21.395Z,83.51
2023-03-24T20:04:49.601Z,83.63
2023-03-24T20:07:18.425Z,83.76
2023-03-24T20:09:46.482Z,83.61
2023-03-24T20:12:14.803Z,83.98
2023-03-24T20:14:43.521Z,83.08
2023-03-24T20:17:18.140Z,83.40
2023-03-24T20:19:46.678Z,83.17
2023-03-24T20:22:15.522Z,83.36
2023-03-24T20:24:44.600Z,83.51
2023-03-24T20:27:13.059Z,83.43
2023-03-24T20:29:41.787Z,83.63
2023-03-24T20:32:11.219Z,82.89
2023-03-24T20:34:40.739Z,82.72
2023-03-24T20:37:08.685Z,82.94
2023-03-24T20:39:36.874Z,82.46
2023-03-24T20:42:04.974Z,82.56
2023-03-24T20:44:32.888Z,82.57
2023-03-24T20:47:00.963Z,83.02
2023-03-24T20:49:29.076Z,82.61
2023-03-24T20:51:58.574Z,83.22
2023-03-24T20:54:26.677Z,82.75
2023-03-24T20:56:54.830Z,83.35
2023-03-24T20:59:23.068Z,83.57
2023-03-24T21:01:50.919Z,83.78
2023-03-24T21:04:19.826Z,84.15
2023-03-24T21:06:47.693Z,83.61
2023-03-24T21:09:16.990Z,83.90
2023-03-24T21:11:44.860Z,83.90
2023-03-24T21:14:13.508Z,84.05
2023-03-24T21:16:41.425Z,83.34
2023-03-24T21:19:10.335Z,83.33
2023-03-24T21:21:38.993Z,83.07
2023-03-24T21:24:07.195Z,82.59
2023-03-24T21:26:36.486Z,82.25
2023-03-24T21:29:04.360Z,82.46
2023-03-24T21:31:32.370Z,82.77
2023-03-24T21:34:00.351Z,82.31
2023-03-24T21:36:29.936Z,83.08
2023-03-24T21:38:58.567Z,82.52
2023-03-24T21:41:26.433Z,82.51
2023-03-24T21:43:55.820Z,83.01
2023-03-24T21:46:25.819Z,84.05
2023-03-24T21:48:59.381Z,84.28
2023-03-24T21:51:34.047Z,84.99
2023-03-24T21:54:04.642Z,85.25
2023-03-24T21:56:33.511Z,85.68
2023-03-24T21:59:03.328Z,84.97
2023-03-24T22:01:33.931Z,85.46
2023-03-24T22:04:03.429Z,84.98
2023-03-24T22:06:37.405Z,84.80
2023-03-24T22:09:08.214Z,84.65
2023-03-24T22:11:36.601Z,84.42
2023-03-24T22:14:05.784Z,84.42
2023-03-24T22:16:33.997Z,84.75
2023-03-24T22:19:02.453Z,84.39
2023-03-24T22:21:32.200Z,83.91
2023-03-24T22:24:00.147Z,84.44
2023-03-24T22:26:28.425Z,83.66
2023-03-24T22:28:57.174Z,83.69
2023-03-24T22:31:26.596Z,83.47
2023-03-24T22:33:54.583Z,83.09
2023-03-24T22:36:22.466Z,83.26
2023-03-24T22:38:50.393Z,83.87
2023-03-24T22:41:18.274Z,84.67
2023-03-24T22:43:46.174Z,85.30
2023-03-24T22:46:14.049Z,87.77
2023-03-24T22:48:43.299Z,88.21
2023-03-24T22:51:16.786Z,88.87
2023-03-24T22:53:44.742Z,90.07
2023-03-24T22:56:12.873Z,90.10
2023-03-24T22:58:41.576Z,90.46
2023-03-24T23:01:10.048Z,90.29
2023-03-24T23:03:37.981Z,90.88
2023-03-24T23:06:09.122Z,90.54
2023-03-24T23:08:38.492Z,90.12
2023-03-24T23:11:08.157Z,89.92
2023-03-24T23:13:36.389Z,90.33
2023-03-24T23:16:04.720Z,90.86
2023-03-24T23:18:33.075Z,90.56
2023-03-24T23:21:06.961Z,90.90
2023-03-24T23:23:37.369Z,90.39
2023-03-24T23:26:06.609Z,91.52
2023-03-24T23:28:35.415Z,90.66
2023-03-24T23:31:03.519Z,89.94
2023-03-24T23:33:31.415Z,90.48
2023-03-24T23:36:01.742Z,90.02
2023-03-24T23:38:29.706Z,91.66
2023-03-24T23:40:59.199Z,91.57
2023-03-24T23:43:27.531Z,91.82
2023-03-24T23:45:56.148Z,90.62
2023-03-24T23:48:24.182Z,91.90
2023-03-24T23:50:56.989Z,90.70
2023-03-24T23:53:24.940Z,91.29
2023-03-24T23:55:57.176Z,90.39
2023-03-24T23:58:29.138Z,89.92
